sensor_id;sensor_type;location;lat;lon;timestamp;P1;durP1;ratioP1;P2;durP2;ratioP2
55813;SDS011;65494;42.818;0.404;2023-07-31T00:38:35;2.13;;;1.00;;
55813;SDS011;65494;42.818;0.404;2023-07-31T00:41:23;2.13;;;0.90;;
55813;SDS011;65494;42.818;0.404;2023-07-31T00:43:58;1.65;;;1.00;;
55813;SDS011;65494;42.818;0.404;2023-07-31T01:24:41;0.63;;;0.50;;
55813;SDS011;65494;42.818;0.404;2023-07-31T01:27:01;2.67;;;0.70;;
55813;SDS011;65494;42.818;0.404;2023-07-31T01:29:47;1.23;;;0.90;;
55813;SDS011;65494;42.818;0.404;2023-07-31T01:32:15;1.55;;;0.70;;
55813;SDS011;65494;42.818;0.404;2023-07-31T01:37:52;0.90;;;0.52;;
55813;SDS011;65494;42.818;0.404;2023-07-31T01:40:19;2.92;;;0.80;;
55813;SDS011;65494;42.818;0.404;2023-07-31T01:42:47;1.15;;;0.60;;
55813;SDS011;65494;42.818;0.404;2023-07-31T01:45:21;2.28;;;0.40;;
55813;SDS011;65494;42.818;0.404;2023-07-31T01:48:16;1.95;;;0.80;;
55813;SDS011;65494;42.818;0.404;2023-07-31T01:51:18;1.25;;;0.80;;
55813;SDS011;65494;42.818;0.404;2023-07-31T02:03:44;1.92;;;0.63;;
55813;SDS011;65494;42.818;0.404;2023-07-31T02:06:38;1.38;;;0.70;;
55813;SDS011;65494;42.818;0.404;2023-07-31T02:37:57;1.90;;;0.80;;
55813;SDS011;65494;42.818;0.404;2023-07-31T02:56:54;3.30;;;0.90;;
55813;SDS011;65494;42.818;0.404;2023-07-31T02:59:20;6.25;;;1.20;;
55813;SDS011;65494;42.818;0.404;2023-07-31T03:01:46;2.20;;;0.98;;
55813;SDS011;65494;42.818;0.404;2023-07-31T03:04:12;2.75;;;1.10;;
55813;SDS011;65494;42.818;0.404;2023-07-31T03:06:38;3.17;;;1.10;;
55813;SDS011;65494;42.818;0.404;2023-07-31T03:25:35;1.98;;;0.95;;
55813;SDS011;65494;42.818;0.404;2023-07-31T03:30:37;8.35;;;1.15;;
55813;SDS011;65494;42.818;0.404;2023-07-31T03:33:04;3.25;;;0.80;;
55813;SDS011;65494;42.818;0.404;2023-07-31T03:35:40;5.60;;;1.08;;
55813;SDS011;65494;42.818;0.404;2023-07-31T03:38:07;7.38;;;0.80;;
55813;SDS011;65494;42.818;0.404;2023-07-31T03:40:33;2.88;;;0.93;;
55813;SDS011;65494;42.818;0.404;2023-07-31T03:43:00;2.58;;;1.20;;
55813;SDS011;65494;42.818;0.404;2023-07-31T03:45:26;5.50;;;1.27;;
55813;SDS011;65494;42.818;0.404;2023-07-31T03:47:52;2.15;;;1.10;;
55813;SDS011;65494;42.818;0.404;2023-07-31T03:50:19;2.47;;;1.15;;
55813;SDS011;65494;42.818;0.404;2023-07-31T03:52:45;4.93;;;1.35;;
55813;SDS011;65494;42.818;0.404;2023-07-31T03:55:13;2.55;;;1.15;;
55813;SDS011;65494;42.818;0.404;2023-07-31T03:57:43;6.50;;;1.20;;
55813;SDS011;65494;42.818;0.404;2023-07-31T04:00:10;3.70;;;1.33;;
55813;SDS011;65494;42.818;0.404;2023-07-31T04:02:36;3.22;;;1.10;;
55813;SDS011;65494;42.818;0.404;2023-07-31T04:05:03;2.00;;;1.25;;
55813;SDS011;65494;42.818;0.404;2023-07-31T04:07:29;2.72;;;1.20;;
55813;SDS011;65494;42.818;0.404;2023-07-31T04:09:56;4.03;;;1.30;;
55813;SDS011;65494;42.818;0.404;2023-07-31T04:12:23;2.58;;;1.23;;
55813;SDS011;65494;42.818;0.404;2023-07-31T04:14:49;3.45;;;1.10;;
55813;SDS011;65494;42.818;0.404;2023-07-31T04:17:18;3.53;;;1.38;;
55813;SDS011;65494;42.818;0.404;2023-07-31T04:19:44;4.53;;;1.48;;
55813;SDS011;65494;42.818;0.404;2023-07-31T04:22:12;2.08;;;1.23;;
55813;SDS011;65494;42.818;0.404;2023-07-31T04:24:39;2.03;;;1.10;;
55813;SDS011;65494;42.818;0.404;2023-07-31T04:27:05;2.10;;;1.17;;
55813;SDS011;65494;42.818;0.404;2023-07-31T04:29:31;3.83;;;1.25;;
55813;SDS011;65494;42.818;0.404;2023-07-31T04:32:25;2.60;;;1.13;;
55813;SDS011;65494;42.818;0.404;2023-07-31T04:34:53;2.83;;;1.25;;
55813;SDS011;65494;42.818;0.404;2023-07-31T04:37:28;1.92;;;1.30;;
55813;SDS011;65494;42.818;0.404;2023-07-31T04:39:54;3.33;;;1.20;;
55813;SDS011;65494;42.818;0.404;2023-07-31T04:42:29;3.78;;;1.00;;
55813;SDS011;65494;42.818;0.404;2023-07-31T05:07:12;2.80;;;1.20;;
55813;SDS011;65494;42.818;0.404;2023-07-31T05:09:40;2.58;;;1.10;;
55813;SDS011;65494;42.818;0.404;2023-07-31T05:12:49;2.20;;;1.30;;
55813;SDS011;65494;42.818;0.404;2023-07-31T05:15:30;2.30;;;1.10;;
55813;SDS011;65494;42.818;0.404;2023-07-31T05:18:04;3.80;;;1.30;;
55813;SDS011;65494;42.818;0.404;2023-07-31T05:20:30;5.78;;;1.88;;
55813;SDS011;65494;42.818;0.404;2023-07-31T05:23:12;5.57;;;1.38;;
55813;SDS011;65494;42.818;0.404;2023-07-31T05:25:38;2.80;;;1.08;;
55813;SDS011;65494;42.818;0.404;2023-07-31T05:28:04;5.68;;;1.38;;
55813;SDS011;65494;42.818;0.404;2023-07-31T05:30:33;2.97;;;1.10;;
55813;SDS011;65494;42.818;0.404;2023-07-31T05:32:59;5.55;;;1.30;;
55813;SDS011;65494;42.818;0.404;2023-07-31T05:35:25;3.08;;;1.20;;
55813;SDS011;65494;42.818;0.404;2023-07-31T05:37:51;5.32;;;1.23;;
55813;SDS011;65494;42.818;0.404;2023-07-31T05:40:17;3.72;;;1.42;;
55813;SDS011;65494;42.818;0.404;2023-07-31T05:42:43;3.97;;;1.20;;
55813;SDS011;65494;42.818;0.404;2023-07-31T05:45:12;3.30;;;1.40;;
55813;SDS011;65494;42.818;0.404;2023-07-31T05:47:39;3.25;;;1.50;;
55813;SDS011;65494;42.818;0.404;2023-07-31T05:50:08;3.90;;;1.30;;
55813;SDS011;65494;42.818;0.404;2023-07-31T05:52:39;5.38;;;1.63;;
55813;SDS011;65494;42.818;0.404;2023-07-31T05:55:05;6.35;;;1.42;;
55813;SDS011;65494;42.818;0.404;2023-07-31T05:57:33;5.40;;;1.60;;
55813;SDS011;65494;42.818;0.404;2023-07-31T06:00:02;2.90;;;1.42;;
55813;SDS011;65494;42.818;0.404;2023-07-31T06:02:28;3.95;;;1.30;;
55813;SDS011;65494;42.818;0.404;2023-07-31T06:04:58;5.60;;;1.40;;
55813;SDS011;65494;42.818;0.404;2023-07-31T06:07:31;3.97;;;1.63;;
55813;SDS011;65494;42.818;0.404;2023-07-31T06:13:12;7.53;;;2.53;;
55813;SDS011;65494;42.818;0.404;2023-07-31T06:15:41;5.35;;;2.03;;
55813;SDS011;65494;42.818;0.404;2023-07-31T06:18:07;5.72;;;1.38;;
55813;SDS011;65494;42.818;0.404;2023-07-31T06:20:34;3.20;;;1.35;;
55813;SDS011;65494;42.818;0.404;2023-07-31T06:23:00;6.10;;;2.15;;
55813;SDS011;65494;42.818;0.404;2023-07-31T06:25:26;8.45;;;4.03;;
55813;SDS011;65494;42.818;0.404;2023-07-31T06:27:52;7.63;;;4.43;;
55813;SDS011;65494;42.818;0.404;2023-07-31T06:30:18;8.98;;;3.58;;
55813;SDS011;65494;42.818;0.404;2023-07-31T06:32:44;9.50;;;3.92;;
55813;SDS011;65494;42.818;0.404;2023-07-31T06:35:33;7.25;;;3.65;;
55813;SDS011;65494;42.818;0.404;2023-07-31T06:40:56;5.60;;;2.95;;
55813;SDS011;65494;42.818;0.404;2023-07-31T06:43:22;7.22;;;2.47;;
55813;SDS011;65494;42.818;0.404;2023-07-31T06:45:51;6.25;;;2.05;;
55813;SDS011;65494;42.818;0.404;2023-07-31T06:48:19;4.57;;;2.10;;
55813;SDS011;65494;42.818;0.404;2023-07-31T06:51:11;5.35;;;1.80;;
55813;SDS011;65494;42.818;0.404;2023-07-31T06:57:05;5.07;;;1.60;;
55813;SDS011;65494;42.818;0.404;2023-07-31T07:25:12;2.28;;;1.20;;
55813;SDS011;65494;42.818;0.404;2023-07-31T07:27:38;3.25;;;1.20;;
55813;SDS011;65494;42.818;0.404;2023-07-31T07:33:39;2.75;;;1.08;;
55813;SDS011;65494;42.818;0.404;2023-07-31T07:36:05;2.95;;;1.42;;
55813;SDS011;65494;42.818;0.404;2023-07-31T07:38:34;2.42;;;1.52;;
55813;SDS011;65494;42.818;0.404;2023-07-31T07:41:01;2.40;;;1.17;;
55813;SDS011;65494;42.818;0.404;2023-07-31T07:43:27;2.67;;;1.23;;
55813;SDS011;65494;42.818;0.404;2023-07-31T07:45:53;3.05;;;1.27;;
55813;SDS011;65494;42.818;0.404;2023-07-31T07:48:19;2.88;;;1.70;;
55813;SDS011;65494;42.818;0.404;2023-07-31T07:50:45;3.20;;;1.20;;
55813;SDS011;65494;42.818;0.404;2023-07-31T08:42:12;2.38;;;0.88;;
55813;SDS011;65494;42.818;0.404;2023-07-31T08:47:35;2.05;;;1.05;;
55813;SDS011;65494;42.818;0.404;2023-07-31T08:50:04;1.48;;;0.80;;
55813;SDS011;65494;42.818;0.404;2023-07-31T08:52:31;4.07;;;1.10;;
55813;SDS011;65494;42.818;0.404;2023-07-31T08:55:00;3.97;;;1.08;;
55813;SDS011;65494;42.818;0.404;2023-07-31T09:00:34;2.03;;;1.02;;
55813;SDS011;65494;42.818;0.404;2023-07-31T09:03:02;3.67;;;1.20;;
55813;SDS011;65494;42.818;0.404;2023-07-31T09:05:28;3.15;;;1.40;;
55813;SDS011;65494;42.818;0.404;2023-07-31T09:07:55;3.28;;;1.35;;
55813;SDS011;65494;42.818;0.404;2023-07-31T09:10:21;5.28;;;1.20;;
55813;SDS011;65494;42.818;0.404;2023-07-31T09:12:48;1.52;;;1.00;;
55813;SDS011;65494;42.818;0.404;2023-07-31T09:15:15;2.50;;;1.00;;
55813;SDS011;65494;42.818;0.404;2023-07-31T09:17:41;2.30;;;1.23;;
55813;SDS011;65494;42.818;0.404;2023-07-31T09:20:15;2.13;;;1.10;;
55813;SDS011;65494;42.818;0.404;2023-07-31T09:22:42;2.38;;;1.20;;
55813;SDS011;65494;42.818;0.404;2023-07-31T09:25:14;4.25;;;1.15;;
55813;SDS011;65494;42.818;0.404;2023-07-31T09:27:50;2.63;;;1.20;;
55813;SDS011;65494;42.818;0.404;2023-07-31T09:30:17;1.63;;;1.20;;
55813;SDS011;65494;42.818;0.404;2023-07-31T09:32:44;2.88;;;1.20;;
55813;SDS011;65494;42.818;0.404;2023-07-31T09:35:21;4.05;;;0.95;;
55813;SDS011;65494;42.818;0.404;2023-07-31T09:37:51;2.08;;;1.23;;
55813;SDS011;65494;42.818;0.404;2023-07-31T09:40:30;2.80;;;1.50;;
55813;SDS011;65494;42.818;0.404;2023-07-31T09:43:00;2.40;;;1.20;;
55813;SDS011;65494;42.818;0.404;2023-07-31T09:45:26;2.47;;;1.13;;
55813;SDS011;65494;42.818;0.404;2023-07-31T09:47:53;2.75;;;1.35;;
55813;SDS011;65494;42.818;0.404;2023-07-31T09:50:20;2.22;;;1.20;;
55813;SDS011;65494;42.818;0.404;2023-07-31T09:52:46;2.03;;;1.08;;
55813;SDS011;65494;42.818;0.404;2023-07-31T09:55:12;2.60;;;1.50;;
55813;SDS011;65494;42.818;0.404;2023-07-31T09:57:44;1.60;;;0.95;;
55813;SDS011;65494;42.818;0.404;2023-07-31T10:00:11;2.38;;;1.42;;
55813;SDS011;65494;42.818;0.404;2023-07-31T10:02:37;3.08;;;1.30;;
55813;SDS011;65494;42.818;0.404;2023-07-31T10:05:04;1.42;;;1.00;;
55813;SDS011;65494;42.818;0.404;2023-07-31T10:07:31;1.83;;;1.13;;
55813;SDS011;65494;42.818;0.404;2023-07-31T10:10:00;2.35;;;1.30;;
55813;SDS011;65494;42.818;0.404;2023-07-31T10:12:26;2.72;;;1.50;;
55813;SDS011;65494;42.818;0.404;2023-07-31T10:14:54;2.10;;;1.40;;
55813;SDS011;65494;42.818;0.404;2023-07-31T10:17:21;2.58;;;1.40;;
55813;SDS011;65494;42.818;0.404;2023-07-31T10:19:48;3.30;;;1.30;;
55813;SDS011;65494;42.818;0.404;2023-07-31T10:22:15;3.38;;;1.30;;
55813;SDS011;65494;42.818;0.404;2023-07-31T10:24:43;1.63;;;1.20;;
55813;SDS011;65494;42.818;0.404;2023-07-31T10:27:10;2.13;;;1.40;;
55813;SDS011;65494;42.818;0.404;2023-07-31T10:29:37;3.42;;;1.77;;
55813;SDS011;65494;42.818;0.404;2023-07-31T10:32:04;2.13;;;1.25;;
55813;SDS011;65494;42.818;0.404;2023-07-31T10:34:33;2.35;;;1.40;;
55813;SDS011;65494;42.818;0.404;2023-07-31T10:39:45;2.80;;;1.45;;
55813;SDS011;65494;42.818;0.404;2023-07-31T10:42:20;3.22;;;1.30;;
55813;SDS011;65494;42.818;0.404;2023-07-31T10:44:54;2.17;;;1.35;;
55813;SDS011;65494;42.818;0.404;2023-07-31T10:47:21;2.17;;;1.38;;
55813;SDS011;65494;42.818;0.404;2023-07-31T10:49:47;3.13;;;1.58;;
55813;SDS011;65494;42.818;0.404;2023-07-31T10:52:15;2.50;;;1.33;;
55813;SDS011;65494;42.818;0.404;2023-07-31T10:54:48;2.00;;;1.40;;
55813;SDS011;65494;42.818;0.404;2023-07-31T10:57:20;1.95;;;1.23;;
55813;SDS011;65494;42.818;0.404;2023-07-31T10:59:47;3.03;;;1.40;;
55813;SDS011;65494;42.818;0.404;2023-07-31T11:02:26;2.55;;;1.48;;
55813;SDS011;65494;42.818;0.404;2023-07-31T11:05:08;4.03;;;1.60;;
55813;SDS011;65494;42.818;0.404;2023-07-31T11:07:47;3.72;;;1.50;;
55813;SDS011;65494;42.818;0.404;2023-07-31T11:10:17;4.47;;;1.77;;
55813;SDS011;65494;42.818;0.404;2023-07-31T11:12:44;4.55;;;1.67;;
55813;SDS011;65494;42.818;0.404;2023-07-31T11:15:11;3.53;;;1.77;;
55813;SDS011;65494;42.818;0.404;2023-07-31T11:17:38;3.92;;;1.50;;
55813;SDS011;65494;42.818;0.404;2023-07-31T11:20:05;3.35;;;1.50;;
55813;SDS011;65494;42.818;0.404;2023-07-31T11:22:32;3.42;;;1.75;;
55813;SDS011;65494;42.818;0.404;2023-07-31T11:24:58;2.05;;;1.65;;
55813;SDS011;65494;42.818;0.404;2023-07-31T11:27:27;2.80;;;1.88;;
55813;SDS011;65494;42.818;0.404;2023-07-31T11:29:59;3.97;;;2.13;;
55813;SDS011;65494;42.818;0.404;2023-07-31T11:32:26;3.03;;;1.75;;
55813;SDS011;65494;42.818;0.404;2023-07-31T11:34:52;4.57;;;1.77;;
55813;SDS011;65494;42.818;0.404;2023-07-31T11:37:19;3.25;;;1.80;;
55813;SDS011;65494;42.818;0.404;2023-07-31T11:39:58;3.08;;;1.90;;
55813;SDS011;65494;42.818;0.404;2023-07-31T11:42:24;5.68;;;1.65;;
55813;SDS011;65494;42.818;0.404;2023-07-31T11:44:50;2.80;;;2.08;;
55813;SDS011;65494;42.818;0.404;2023-07-31T11:47:16;2.60;;;1.77;;
55813;SDS011;65494;42.818;0.404;2023-07-31T11:49:43;3.20;;;1.60;;
55813;SDS011;65494;42.818;0.404;2023-07-31T11:52:09;4.88;;;1.80;;
55813;SDS011;65494;42.818;0.404;2023-07-31T11:54:36;2.80;;;1.52;;
55813;SDS011;65494;42.818;0.404;2023-07-31T11:57:03;2.30;;;1.70;;
55813;SDS011;65494;42.818;0.404;2023-07-31T11:59:30;3.38;;;1.63;;
55813;SDS011;65494;42.818;0.404;2023-07-31T12:01:56;2.67;;;1.48;;
55813;SDS011;65494;42.818;0.404;2023-07-31T12:04:23;2.88;;;1.80;;
55813;SDS011;65494;42.818;0.404;2023-07-31T12:06:49;3.15;;;1.90;;
55813;SDS011;65494;42.818;0.404;2023-07-31T12:09:18;3.33;;;1.77;;
55813;SDS011;65494;42.818;0.404;2023-07-31T12:11:45;3.22;;;1.88;;
55813;SDS011;65494;42.818;0.404;2023-07-31T12:14:21;2.55;;;1.63;;
55813;SDS011;65494;42.818;0.404;2023-07-31T12:16:47;2.92;;;1.88;;
55813;SDS011;65494;42.818;0.404;2023-07-31T12:19:14;2.95;;;1.70;;
55813;SDS011;65494;42.818;0.404;2023-07-31T12:21:40;3.05;;;1.67;;
55813;SDS011;65494;42.818;0.404;2023-07-31T12:24:06;3.47;;;1.92;;
55813;SDS011;65494;42.818;0.404;2023-07-31T12:26:35;3.08;;;1.70;;
55813;SDS011;65494;42.818;0.404;2023-07-31T12:29:01;2.63;;;1.80;;
55813;SDS011;65494;42.818;0.404;2023-07-31T12:31:27;2.67;;;1.85;;
55813;SDS011;65494;42.818;0.404;2023-07-31T12:33:54;3.35;;;1.98;;
55813;SDS011;65494;42.818;0.404;2023-07-31T12:36:22;2.70;;;1.55;;
55813;SDS011;65494;42.818;0.404;2023-07-31T12:38:52;3.38;;;2.00;;
55813;SDS011;65494;42.818;0.404;2023-07-31T12:41:18;3.30;;;2.10;;
55813;SDS011;65494;42.818;0.404;2023-07-31T12:43:45;3.60;;;2.03;;
55813;SDS011;65494;42.818;0.404;2023-07-31T12:46:11;3.08;;;1.70;;
55813;SDS011;65494;42.818;0.404;2023-07-31T12:48:38;3.05;;;1.90;;
55813;SDS011;65494;42.818;0.404;2023-07-31T12:51:05;6.25;;;2.05;;
55813;SDS011;65494;42.818;0.404;2023-07-31T12:53:31;3.90;;;2.10;;
55813;SDS011;65494;42.818;0.404;2023-07-31T12:55:58;2.70;;;1.88;;
55813;SDS011;65494;42.818;0.404;2023-07-31T12:58:24;3.20;;;1.90;;
55813;SDS011;65494;42.818;0.404;2023-07-31T13:00:51;6.55;;;1.98;;
55813;SDS011;65494;42.818;0.404;2023-07-31T13:03:17;4.53;;;2.10;;
55813;SDS011;65494;42.818;0.404;2023-07-31T13:05:43;3.63;;;2.00;;
55813;SDS011;65494;42.818;0.404;2023-07-31T13:08:09;4.00;;;2.00;;
55813;SDS011;65494;42.818;0.404;2023-07-31T13:10:37;4.22;;;2.28;;
55813;SDS011;65494;42.818;0.404;2023-07-31T13:13:03;2.78;;;1.95;;
55813;SDS011;65494;42.818;0.404;2023-07-31T13:15:30;7.35;;;2.10;;
55813;SDS011;65494;42.818;0.404;2023-07-31T13:17:56;3.25;;;1.80;;
55813;SDS011;65494;42.818;0.404;2023-07-31T13:20:22;5.45;;;2.00;;
55813;SDS011;65494;42.818;0.404;2023-07-31T13:22:48;3.20;;;1.90;;
55813;SDS011;65494;42.818;0.404;2023-07-31T13:25:14;4.22;;;2.00;;
55813;SDS011;65494;42.818;0.404;2023-07-31T13:27:40;5.10;;;1.98;;
55813;SDS011;65494;42.818;0.404;2023-07-31T13:30:07;4.70;;;1.95;;
55813;SDS011;65494;42.818;0.404;2023-07-31T13:32:33;4.05;;;2.15;;
55813;SDS011;65494;42.818;0.404;2023-07-31T13:35:03;4.35;;;2.65;;
55813;SDS011;65494;42.818;0.404;2023-07-31T13:37:30;5.10;;;2.00;;
55813;SDS011;65494;42.818;0.404;2023-07-31T13:39:56;3.85;;;2.00;;
55813;SDS011;65494;42.818;0.404;2023-07-31T13:42:22;7.85;;;2.00;;
55813;SDS011;65494;42.818;0.404;2023-07-31T13:44:48;5.10;;;1.92;;
55813;SDS011;65494;42.818;0.404;2023-07-31T13:47:14;9.85;;;2.33;;
55813;SDS011;65494;42.818;0.404;2023-07-31T13:49:40;4.97;;;2.30;;
55813;SDS011;65494;42.818;0.404;2023-07-31T13:52:08;4.55;;;2.00;;
55813;SDS011;65494;42.818;0.404;2023-07-31T13:54:36;9.48;;;2.67;;
55813;SDS011;65494;42.818;0.404;2023-07-31T13:57:02;4.65;;;2.05;;
55813;SDS011;65494;42.818;0.404;2023-07-31T13:59:28;4.47;;;2.30;;
55813;SDS011;65494;42.818;0.404;2023-07-31T14:01:54;4.22;;;2.08;;
55813;SDS011;65494;42.818;0.404;2023-07-31T14:04:20;3.80;;;2.15;;
55813;SDS011;65494;42.818;0.404;2023-07-31T14:06:46;6.20;;;2.10;;
55813;SDS011;65494;42.818;0.404;2023-07-31T14:09:13;5.45;;;2.35;;
55813;SDS011;65494;42.818;0.404;2023-07-31T14:11:39;4.82;;;2.13;;
55813;SDS011;65494;42.818;0.404;2023-07-31T14:14:05;5.35;;;2.30;;
55813;SDS011;65494;42.818;0.404;2023-07-31T14:16:31;4.70;;;2.40;;
55813;SDS011;65494;42.818;0.404;2023-07-31T14:18:58;5.85;;;2.20;;
55813;SDS011;65494;42.818;0.404;2023-07-31T14:21:24;6.82;;;2.28;;
55813;SDS011;65494;42.818;0.404;2023-07-31T14:23:50;4.55;;;2.40;;
55813;SDS011;65494;42.818;0.404;2023-07-31T14:26:17;4.75;;;2.03;;
55813;SDS011;65494;42.818;0.404;2023-07-31T14:28:43;4.28;;;2.03;;
55813;SDS011;65494;42.818;0.404;2023-07-31T14:31:09;3.70;;;1.90;;
55813;SDS011;65494;42.818;0.404;2023-07-31T14:33:35;5.32;;;2.30;;
55813;SDS011;65494;42.818;0.404;2023-07-31T14:36:01;5.05;;;2.10;;
55813;SDS011;65494;42.818;0.404;2023-07-31T14:38:27;5.53;;;2.08;;
55813;SDS011;65494;42.818;0.404;2023-07-31T14:40:53;5.10;;;2.22;;
55813;SDS011;65494;42.818;0.404;2023-07-31T14:43:19;3.83;;;2.03;;
55813;SDS011;65494;42.818;0.404;2023-07-31T14:45:45;5.22;;;2.33;;
55813;SDS011;65494;42.818;0.404;2023-07-31T14:48:12;6.82;;;2.80;;
55813;SDS011;65494;42.818;0.404;2023-07-31T14:50:39;4.57;;;2.30;;
55813;SDS011;65494;42.818;0.404;2023-07-31T14:53:05;5.00;;;2.17;;
55813;SDS011;65494;42.818;0.404;2023-07-31T14:55:31;3.85;;;2.10;;
55813;SDS011;65494;42.818;0.404;2023-07-31T14:57:57;5.28;;;2.45;;
55813;SDS011;65494;42.818;0.404;2023-07-31T15:00:23;6.57;;;2.50;;
55813;SDS011;65494;42.818;0.404;2023-07-31T15:02:50;5.22;;;2.40;;
55813;SDS011;65494;42.818;0.404;2023-07-31T15:05:16;4.03;;;1.90;;
55813;SDS011;65494;42.818;0.404;2023-07-31T15:07:42;4.15;;;2.10;;
55813;SDS011;65494;42.818;0.404;2023-07-31T15:10:08;5.68;;;2.47;;
55813;SDS011;65494;42.818;0.404;2023-07-31T15:12:34;7.07;;;2.50;;
55813;SDS011;65494;42.818;0.404;2023-07-31T15:15:02;4.90;;;2.40;;
55813;SDS011;65494;42.818;0.404;2023-07-31T15:17:28;6.68;;;2.30;;
55813;SDS011;65494;42.818;0.404;2023-07-31T15:19:55;6.25;;;2.40;;
55813;SDS011;65494;42.818;0.404;2023-07-31T15:22:21;4.68;;;2.47;;
55813;SDS011;65494;42.818;0.404;2023-07-31T15:24:47;5.70;;;2.40;;
55813;SDS011;65494;42.818;0.404;2023-07-31T15:27:14;5.45;;;2.60;;
55813;SDS011;65494;42.818;0.404;2023-07-31T15:29:40;5.05;;;2.30;;
55813;SDS011;65494;42.818;0.404;2023-07-31T15:32:06;3.90;;;2.05;;
55813;SDS011;65494;42.818;0.404;2023-07-31T15:34:32;5.03;;;2.38;;
55813;SDS011;65494;42.818;0.404;2023-07-31T15:36:58;5.40;;;2.50;;
55813;SDS011;65494;42.818;0.404;2023-07-31T15:39:24;5.10;;;2.58;;
55813;SDS011;65494;42.818;0.404;2023-07-31T15:41:51;6.85;;;2.67;;
55813;SDS011;65494;42.818;0.404;2023-07-31T15:44:17;6.60;;;3.13;;
55813;SDS011;65494;42.818;0.404;2023-07-31T15:46:43;4.68;;;2.70;;
55813;SDS011;65494;42.818;0.404;2023-07-31T15:49:09;7.93;;;2.95;;
55813;SDS011;65494;42.818;0.404;2023-07-31T15:51:35;7.28;;;2.80;;
55813;SDS011;65494;42.818;0.404;2023-07-31T15:54:01;5.70;;;2.80;;
55813;SDS011;65494;42.818;0.404;2023-07-31T15:56:27;5.82;;;2.85;;
55813;SDS011;65494;42.818;0.404;2023-07-31T15:58:54;6.80;;;2.80;;
55813;SDS011;65494;42.818;0.404;2023-07-31T16:01:22;5.97;;;3.10;;
55813;SDS011;65494;42.818;0.404;2023-07-31T16:03:48;6.97;;;2.88;;
55813;SDS011;65494;42.818;0.404;2023-07-31T16:06:17;6.68;;;2.70;;
55813;SDS011;65494;42.818;0.404;2023-07-31T16:08:43;10.60;;;3.40;;
55813;SDS011;65494;42.818;0.404;2023-07-31T16:11:09;6.45;;;3.25;;
55813;SDS011;65494;42.818;0.404;2023-07-31T16:13:36;6.55;;;3.22;;
55813;SDS011;65494;42.818;0.404;2023-07-31T16:16:02;7.75;;;2.92;;
55813;SDS011;65494;42.818;0.404;2023-07-31T16:18:28;7.85;;;3.00;;
55813;SDS011;65494;42.818;0.404;2023-07-31T16:20:54;4.15;;;2.63;;
55813;SDS011;65494;42.818;0.404;2023-07-31T16:23:20;9.05;;;3.60;;
55813;SDS011;65494;42.818;0.404;2023-07-31T16:25:47;7.18;;;3.03;;
55813;SDS011;65494;42.818;0.404;2023-07-31T16:28:14;6.22;;;3.05;;
55813;SDS011;65494;42.818;0.404;2023-07-31T16:30:40;6.70;;;3.10;;
55813;SDS011;65494;42.818;0.404;2023-07-31T16:33:07;8.40;;;3.20;;
55813;SDS011;65494;42.818;0.404;2023-07-31T16:35:33;9.45;;;3.60;;
55813;SDS011;65494;42.818;0.404;2023-07-31T16:37:59;5.53;;;3.05;;
55813;SDS011;65494;42.818;0.404;2023-07-31T16:40:25;6.90;;;3.22;;
55813;SDS011;65494;42.818;0.404;2023-07-31T16:42:51;7.40;;;3.10;;
55813;SDS011;65494;42.818;0.404;2023-07-31T16:45:17;6.15;;;3.10;;
55813;SDS011;65494;42.818;0.404;2023-07-31T16:47:43;6.28;;;3.30;;
55813;SDS011;65494;42.818;0.404;2023-07-31T16:50:10;6.95;;;3.28;;
55813;SDS011;65494;42.818;0.404;2023-07-31T16:52:36;8.13;;;3.50;;
55813;SDS011;65494;42.818;0.404;2023-07-31T16:55:02;8.05;;;3.45;;
55813;SDS011;65494;42.818;0.404;2023-07-31T16:57:28;8.25;;;3.67;;
55813;SDS011;65494;42.818;0.404;2023-07-31T16:59:54;8.90;;;3.47;;
55813;SDS011;65494;42.818;0.404;2023-07-31T17:02:21;8.23;;;3.22;;
55813;SDS011;65494;42.818;0.404;2023-07-31T17:04:47;7.30;;;3.33;;
55813;SDS011;65494;42.818;0.404;2023-07-31T17:07:13;8.85;;;3.53;;
55813;SDS011;65494;42.818;0.404;2023-07-31T17:09:39;7.22;;;3.20;;
55813;SDS011;65494;42.818;0.404;2023-07-31T17:12:06;8.45;;;3.42;;
55813;SDS011;65494;42.818;0.404;2023-07-31T17:14:32;7.65;;;3.65;;
55813;SDS011;65494;42.818;0.404;2023-07-31T17:16:58;6.80;;;3.75;;
55813;SDS011;65494;42.818;0.404;2023-07-31T17:19:24;7.60;;;3.40;;
55813;SDS011;65494;42.818;0.404;2023-07-31T17:21:50;5.40;;;2.90;;
55813;SDS011;65494;42.818;0.404;2023-07-31T17:24:16;8.40;;;3.35;;
55813;SDS011;65494;42.818;0.404;2023-07-31T17:26:42;8.98;;;3.45;;
55813;SDS011;65494;42.818;0.404;2023-07-31T17:31:36;7.05;;;3.25;;
55813;SDS011;65494;42.818;0.404;2023-07-31T17:34:03;6.32;;;3.13;;
55813;SDS011;65494;42.818;0.404;2023-07-31T17:36:29;7.50;;;3.40;;
55813;SDS011;65494;42.818;0.404;2023-07-31T17:38:57;7.63;;;3.15;;
55813;SDS011;65494;42.818;0.404;2023-07-31T17:41:24;7.10;;;3.35;;
55813;SDS011;65494;42.818;0.404;2023-07-31T17:43:52;6.95;;;3.10;;
55813;SDS011;65494;42.818;0.404;2023-07-31T17:46:19;13.95;;;3.65;;
55813;SDS011;65494;42.818;0.404;2023-07-31T17:48:45;9.82;;;4.13;;
55813;SDS011;65494;42.818;0.404;2023-07-31T17:51:11;10.77;;;4.00;;
55813;SDS011;65494;42.818;0.404;2023-07-31T17:53:37;6.93;;;3.38;;
55813;SDS011;65494;42.818;0.404;2023-07-31T17:56:03;9.10;;;3.38;;
55813;SDS011;65494;42.818;0.404;2023-07-31T17:58:30;6.65;;;3.28;;
55813;SDS011;65494;42.818;0.404;2023-07-31T18:00:56;10.98;;;3.58;;
55813;SDS011;65494;42.818;0.404;2023-07-31T18:03:22;6.97;;;3.42;;
55813;SDS011;65494;42.818;0.404;2023-07-31T18:05:50;8.57;;;3.70;;
55813;SDS011;65494;42.818;0.404;2023-07-31T18:08:16;10.52;;;3.33;;
55813;SDS011;65494;42.818;0.404;2023-07-31T18:10:44;11.60;;;3.67;;
55813;SDS011;65494;42.818;0.404;2023-07-31T18:13:10;8.63;;;3.50;;
55813;SDS011;65494;42.818;0.404;2023-07-31T18:15:36;6.40;;;3.13;;
55813;SDS011;65494;42.818;0.404;2023-07-31T18:18:03;5.97;;;3.22;;
55813;SDS011;65494;42.818;0.404;2023-07-31T18:20:29;6.75;;;3.20;;
55813;SDS011;65494;42.818;0.404;2023-07-31T18:22:56;8.77;;;3.28;;
55813;SDS011;65494;42.818;0.404;2023-07-31T18:25:22;6.13;;;3.33;;
55813;SDS011;65494;42.818;0.404;2023-07-31T18:27:49;6.97;;;3.15;;
55813;SDS011;65494;42.818;0.404;2023-07-31T18:30:15;8.68;;;3.45;;
55813;SDS011;65494;42.818;0.404;2023-07-31T18:32:41;10.80;;;4.40;;
55813;SDS011;65494;42.818;0.404;2023-07-31T18:35:07;10.32;;;4.28;;
55813;SDS011;65494;42.818;0.404;2023-07-31T18:37:33;6.57;;;3.03;;
55813;SDS011;65494;42.818;0.404;2023-07-31T18:39:59;6.85;;;3.35;;
55813;SDS011;65494;42.818;0.404;2023-07-31T18:42:25;8.18;;;3.20;;
55813;SDS011;65494;42.818;0.404;2023-07-31T18:44:51;7.15;;;3.08;;
55813;SDS011;65494;42.818;0.404;2023-07-31T18:47:17;7.97;;;3.33;;
55813;SDS011;65494;42.818;0.404;2023-07-31T18:49:43;7.63;;;3.42;;
55813;SDS011;65494;42.818;0.404;2023-07-31T18:52:09;8.48;;;3.40;;
55813;SDS011;65494;42.818;0.404;2023-07-31T18:54:35;6.00;;;2.92;;
55813;SDS011;65494;42.818;0.404;2023-07-31T18:57:01;5.40;;;3.22;;
55813;SDS011;65494;42.818;0.404;2023-07-31T18:59:28;8.27;;;3.58;;
55813;SDS011;65494;42.818;0.404;2023-07-31T19:01:54;8.18;;;3.40;;
55813;SDS011;65494;42.818;0.404;2023-07-31T19:04:20;6.57;;;3.22;;
55813;SDS011;65494;42.818;0.404;2023-07-31T19:06:46;8.32;;;3.35;;
55813;SDS011;65494;42.818;0.404;2023-07-31T19:09:12;7.50;;;3.17;;
55813;SDS011;65494;42.818;0.404;2023-07-31T19:11:38;6.43;;;3.03;;
55813;SDS011;65494;42.818;0.404;2023-07-31T19:14:04;9.93;;;4.10;;
55813;SDS011;65494;42.818;0.404;2023-07-31T19:16:31;7.10;;;3.42;;
55813;SDS011;65494;42.818;0.404;2023-07-31T19:18:57;6.97;;;3.15;;
55813;SDS011;65494;42.818;0.404;2023-07-31T19:21:24;9.25;;;3.17;;
55813;SDS011;65494;42.818;0.404;2023-07-31T19:23:50;6.88;;;3.53;;
55813;SDS011;65494;42.818;0.404;2023-07-31T19:26:17;11.20;;;4.75;;